Time;durP1;ratioP1;P1;durP2;ratioP2;P2;SDS_P1;SDS_P2;PMS_P1;PMS_P2;Temp;Humidity;BMP_temperature;BMP_pressure;BME280_temperature;BME280_humidity;BME280_pressure;Samples;Min_cycle;Max_cycle;Signal;HPM_P1;HPM_P2
2022/07/30 00:01:02;;;;;;;2.13;1.80;;;17.20;99.90;;;;;;5034526;28;20192;-71
2022/07/30 00:03:28;;;;;;;2.23;2.03;;;17.20;99.90;;;;;;5035036;28;20199;-71
2022/07/30 00:05:54;;;;;;;2.80;1.83;;;17.10;99.90;;;;;;5034649;28;20402;-71
2022/07/30 00:08:22;;;;;;;4.03;2.57;;;17.10;99.90;;;;;;5034721;28;20544;-71
2022/07/30 00:10:48;;;;;;;3.00;2.70;;;17.10;99.90;;;;;;5034451;28;20445;-71
2022/07/30 00:13:14;;;;;;;2.60;2.40;;;17.00;99.90;;;;;;5034467;28;20504;-71
2022/07/30 00:15:40;;;;;;;3.10;2.63;;;17.00;99.90;;;;;;5034372;28;20472;-71
2022/07/30 00:18:05;;;;;;;3.90;3.07;;;17.00;99.90;;;;;;5034627;28;20159;-71
2022/07/30 00:20:31;;;;;;;3.03;2.20;;;17.00;99.90;;;;;;5034543;28;20200;-71
2022/07/30 00:22:57;;;;;;;2.40;2.20;;;17.00;99.90;;;;;;5034569;28;20171;-71
2022/07/30 00:25:22;;;;;;;2.80;2.57;;;17.00;99.90;;;;;;5034153;28;20172;-71
2022/07/30 00:27:48;;;;;;;3.03;2.70;;;16.90;99.90;;;;;;5033309;28;20177;-71
2022/07/30 00:30:14;;;;;;;2.93;2.60;;;16.90;99.90;;;;;;5034276;28;20274;-71
2022/07/30 00:32:39;;;;;;;3.40;3.10;;;16.90;99.90;;;;;;5033064;28;20237;-72
2022/07/30 00:35:06;;;;;;;2.93;2.60;;;16.90;99.90;;;;;;5032960;28;20422;-72
2022/07/30 00:37:31;;;;;;;2.37;2.17;;;16.90;99.90;;;;;;5034364;28;20613;-72
2022/07/30 00:39:57;;;;;;;3.73;2.90;;;16.90;99.90;;;;;;5033705;28;20483;-72
2022/07/30 00:42:25;;;;;;;2.87;2.43;;;16.90;99.90;;;;;;5033252;28;20174;-71
2022/07/30 00:44:53;;;;;;;3.03;2.73;;;16.90;99.90;;;;;;5033974;28;20171;-71
2022/07/30 00:47:19;;;;;;;2.97;2.53;;;16.90;99.90;;;;;;5032731;28;20833;-71
2022/07/30 00:49:45;;;;;;;4.10;2.57;;;16.80;99.90;;;;;;5034098;28;20403;-71
2022/07/30 00:52:11;;;;;;;3.27;2.30;;;16.80;99.90;;;;;;5033836;28;20472;-72
2022/07/30 00:54:37;;;;;;;3.37;3.07;;;16.80;99.90;;;;;;5033684;28;20395;-72
2022/07/30 00:57:03;;;;;;;3.13;2.50;;;16.80;99.90;;;;;;5033409;28;20429;-72
2022/07/30 00:59:30;;;;;;;4.50;2.57;;;16.70;99.90;;;;;;5033917;28;20544;-71
2022/07/30 01:01:56;;;;;;;2.87;2.40;;;16.70;99.90;;;;;;5033782;28;20640;-71
2022/07/30 01:04:21;;;;;;;5.93;3.10;;;16.70;99.90;;;;;;5033485;28;20399;-71
2022/07/30 01:06:47;;;;;;;3.00;2.67;;;16.70;99.90;;;;;;5033309;28;20545;-71
2022/07/30 01:09:12;;;;;;;4.07;3.10;;;16.70;99.90;;;;;;5033555;28;20195;-72
2022/07/30 01:11:40;;;;;;;3.43;2.90;;;16.70;99.90;;;;;;5033568;28;20187;-72
2022/07/30 01:14:06;;;;;;;4.23;3.47;;;16.70;99.90;;;;;;5032267;28;20625;-71
2022/07/30 01:16:34;;;;;;;5.80;4.50;;;16.70;99.90;;;;;;5033328;28;20934;-71
2022/07/30 01:21:59;;;;;;;5.23;4.53;;;16.70;99.90;;;;;;5033402;28;20438;-72
2022/07/30 01:25:14;;;;;;;5.40;4.87;;;16.80;99.90;;;;;;5031787;28;20556;-71
2022/07/30 01:28:05;;;;;;;6.83;5.70;;;16.80;99.90;;;;;;4958798;28;20410;-71
2022/07/30 01:30:34;;;;;;;6.83;4.73;;;16.90;99.90;;;;;;5032997;28;20449;-72
2022/07/30 01:33:01;;;;;;;5.57;4.77;;;16.90;99.90;;;;;;5033015;28;20453;-71
2022/07/30 01:35:29;;;;;;;5.10;4.30;;;16.90;99.90;;;;;;5032697;28;20453;-71
2022/07/30 01:37:56;;;;;;;5.00;4.50;;;16.90;99.90;;;;;;5033130;28;20394;-71
2022/07/30 01:40:24;;;;;;;7.73;4.60;;;17.00;99.90;;;;;;5033158;28;20426;-72
2022/07/30 01:42:56;;;;;;;6.67;5.10;;;17.00;99.90;;;;;;5032911;28;20509;-71
2022/07/30 01:45:23;;;;;;;7.27;5.13;;;17.00;99.90;;;;;;5032816;28;20409;-72
2022/07/30 01:47:50;;;;;;;5.77;4.40;;;17.10;99.90;;;;;;5033027;28;20903;-71
2022/07/30 01:50:17;;;;;;;6.20;4.83;;;17.10;99.90;;;;;;5032840;28;20434;-71
2022/07/30 01:52:44;;;;;;;5.07;4.57;;;17.10;99.90;;;;;;5032658;28;20490;-72
2022/07/30 01:55:16;;;;;;;4.93;4.47;;;17.10;99.90;;;;;;5032225;28;20423;-71
2022/07/30 01:57:45;;;;;;;6.60;4.60;;;17.10;99.90;;;;;;5032888;28;20814;-71
2022/07/30 02:00:12;;;;;;;8.77;5.97;;;17.00;99.90;;;;;;5032639;28;20441;-71
2022/07/30 02:02:39;;;;;;;4.50;4.10;;;17.00;99.90;;;;;;5031333;28;20786;-71
2022/07/30 02:05:06;;;;;;;7.37;5.40;;;17.00;99.90;;;;;;5032107;28;20831;-71
2022/07/30 02:07:45;;;;;;;5.53;4.97;;;17.00;99.90;;;;;;5031002;28;20434;-72
2022/07/30 02:10:16;;;;;;;5.00;4.50;;;16.90;99.90;;;;;;5032491;28;20513;-71
2022/07/30 02:12:47;;;;;;;4.23;3.83;;;16.90;99.90;;;;;;5032475;28;20458;-72
2022/07/30 02:15:16;;;;;;;5.57;5.03;;;16.90;99.90;;;;;;5030618;28;20417;-72
2022/07/30 02:18:19;;;;;;;6.10;5.47;;;16.90;99.90;;;;;;5032330;28;20748;-71
2022/07/30 02:20:49;;;;;;;5.50;5.00;;;16.80;99.90;;;;;;5020192;28;20438;-71
2022/07/30 02:23:17;;;;;;;5.80;5.10;;;16.80;99.90;;;;;;5031952;28;20411;-71
2022/07/30 02:25:47;;;;;;;5.73;5.10;;;16.80;99.90;;;;;;5032034;28;20468;-72
2022/07/30 02:28:15;;;;;;;5.93;4.87;;;16.80;99.90;;;;;;5032308;28;20480;-71
2022/07/30 02:30:52;;;;;;;5.17;4.67;;;16.80;99.90;;;;;;5031920;28;20438;-73
2022/07/30 02:33:21;;;;;;;5.70;5.03;;;16.80;99.90;;;;;;5030867;28;20485;-73
2022/07/30 02:35:48;;;;;;;7.73;4.37;;;16.80;99.90;;;;;;5031841;28;20501;-72
2022/07/30 02:38:16;;;;;;;5.27;4.77;;;16.70;99.90;;;;;;5032156;28;20409;-73
2022/07/30 02:40:43;;;;;;;5.43;4.93;;;16.70;99.90;;;;;;5030518;28;20426;-73
2022/07/30 02:43:10;;;;;;;6.87;5.53;;;16.70;99.90;;;;;;5032060;28;20781;-73
2022/07/30 02:45:36;;;;;;;6.43;5.27;;;16.70;99.90;;;;;;5031619;28;20745;-73
2022/07/30 02:48:05;;;;;;;6.40;5.43;;;16.70;99.90;;;;;;5032065;28;20789;-72
2022/07/30 02:50:32;;;;;;;9.43;5.23;;;16.60;99.90;;;;;;5031861;28;20487;-72
2022/07/30 02:52:59;;;;;;;8.30;5.57;;;16.60;99.90;;;;;;5031317;28;21007;-73
2022/07/30 02:55:28;;;;;;;7.90;5.10;;;16.60;99.90;;;;;;5031683;28;20525;-72
2022/07/30 02:57:55;;;;;;;6.53;5.93;;;16.60;99.90;;;;;;5031618;28;20497;-73
2022/07/30 03:00:23;;;;;;;6.07;5.40;;;16.60;99.90;;;;;;5030539;28;20430;-73
2022/07/30 03:02:50;;;;;;;7.40;6.37;;;16.60;99.90;;;;;;5030413;28;20422;-73
2022/07/30 03:05:16;;;;;;;6.67;6.07;;;16.60;99.90;;;;;;5031428;28;20424;-73
2022/07/30 03:07:44;;;;;;;6.73;5.67;;;16.60;99.90;;;;;;5031599;28;20939;-71
2022/07/30 03:10:11;;;;;;;5.50;4.90;;;16.60;99.90;;;;;;5031695;28;21017;-71
2022/07/30 03:12:40;;;;;;;7.23;6.43;;;16.60;99.90;;;;;;5031700;28;20481;-71
2022/07/30 03:15:06;;;;;;;6.87;5.77;;;16.60;99.90;;;;;;5031476;28;20407;-71
2022/07/30 03:17:38;;;;;;;7.23;5.80;;;16.60;99.90;;;;;;5031473;28;20418;-71
2022/07/30 03:20:07;;;;;;;6.30;5.33;;;16.50;99.90;;;;;;5031592;28;20517;-71
2022/07/30 03:22:38;;;;;;;5.33;4.47;;;16.50;99.90;;;;;;5031378;28;20867;-71
2022/07/30 03:25:04;;;;;;;6.90;5.07;;;16.50;99.90;;;;;;5031453;28;20426;-72
2022/07/30 03:27:31;;;;;;;5.23;4.73;;;16.50;99.90;;;;;;5031580;28;20402;-72
2022/07/30 03:29:57;;;;;;;7.20;5.90;;;16.50;99.90;;;;;;5030049;28;20418;-71
2022/07/30 03:32:24;;;;;;;7.50;6.70;;;16.50;99.90;;;;;;5031540;28;20410;-71
2022/07/30 03:34:50;;;;;;;7.53;5.10;;;16.50;99.90;;;;;;5032754;28;20417;-71
2022/07/30 03:37:17;;;;;;;9.53;6.03;;;16.50;99.90;;;;;;5035420;28;20398;-71
2022/07/30 03:39:43;;;;;;;12.13;6.40;;;16.40;99.90;;;;;;5035343;28;20887;-71
2022/07/30 03:42:09;;;;;;;7.70;5.80;;;16.40;99.90;;;;;;5035095;28;20461;-71
2022/07/30 03:44:36;;;;;;;10.20;5.53;;;16.40;99.90;;;;;;5035174;28;20409;-71
2022/07/30 03:47:03;;;;;;;13.70;6.10;;;16.30;99.90;;;;;;5035161;28;20437;-71
2022/07/30 03:49:29;;;;;;;5.67;5.10;;;16.20;99.90;;;;;;5034708;28;20426;-71
2022/07/30 03:51:55;;;;;;;7.30;5.53;;;16.20;99.90;;;;;;5034809;28;20452;-71
2022/07/30 03:54:22;;;;;;;6.47;5.87;;;16.20;99.90;;;;;;5034743;28;20172;-72
2022/07/30 03:56:47;;;;;;;6.07;5.13;;;16.10;99.90;;;;;;5035100;28;20936;-71
2022/07/30 03:59:13;;;;;;;9.23;5.63;;;16.10;99.90;;;;;;5035016;28;20400;-72
2022/07/30 04:01:39;;;;;;;11.33;6.40;;;16.10;99.90;;;;;;5034961;28;20732;-72
2022/07/30 04:04:06;;;;;;;10.33;6.07;;;16.10;99.90;;;;;;5034605;28;20468;-71
2022/07/30 04:06:35;;;;;;;8.70;6.03;;;16.10;99.90;;;;;;5033134;28;20421;-71
2022/07/30 04:09:00;;;;;;;6.90;5.27;;;16.00;99.90;;;;;;5034798;28;20901;-71
2022/07/30 04:11:26;;;;;;;6.80;5.53;;;16.00;99.90;;;;;;5034730;28;20485;-71
2022/07/30 04:13:52;;;;;;;7.23;6.53;;;16.00;99.90;;;;;;5034771;28;20251;-71
2022/07/30 04:16:30;;;;;;;8.67;6.53;;;16.00;99.90;;;;;;5033969;28;20644;-71
2022/07/30 04:18:58;;;;;;;5.80;4.53;;;16.00;99.90;;;;;;5034692;28;20547;-71
2022/07/30 04:21:25;;;;;;;12.47;6.00;;;15.90;99.90;;;;;;5034610;28;20950;-71
2022/07/30 04:23:53;;;;;;;6.73;5.60;;;16.00;99.90;;;;;;5034480;28;20488;-71
2022/07/30 04:26:20;;;;;;;6.77;5.63;;;16.00;99.90;;;;;;5034250;28;20505;-71
2022/07/30 04:28:46;;;;;;;6.77;5.00;;;16.00;99.90;;;;;;5033011;28;20417;-71
2022/07/30 04:31:13;;;;;;;10.97;5.77;;;16.10;99.90;;;;;;5034375;28;20525;-71
2022/07/30 04:33:38;;;;;;;7.57;6.50;;;16.20;99.90;;;;;;5034383;28;20398;-71
2022/07/30 04:36:08;;;;;;;12.43;7.57;;;16.20;99.90;;;;;;5034119;28;20813;-71
2022/07/30 04:38:33;;;;;;;7.23;6.37;;;16.30;99.90;;;;;;5034338;28;20222;-71
2022/07/30 04:40:59;;;;;;;11.43;6.87;;;16.30;99.90;;;;;;5033931;28;20974;-71
2022/07/30 04:43:25;;;;;;;7.70;5.93;;;16.30;99.90;;;;;;5033779;28;20257;-72
2022/07/30 04:45:51;;;;;;;9.00;6.00;;;16.40;99.90;;;;;;5033296;28;20244;-72
2022/07/30 04:48:16;;;;;;;9.60;6.10;;;16.50;99.90;;;;;;5033899;28;20479;-72
2022/07/30 04:50:47;;;;;;;8.07;6.57;;;16.50;99.90;;;;;;5033695;28;20192;-72
2022/07/30 04:53:14;;;;;;;6.93;5.50;;;16.50;99.90;;;;;;5034014;28;20264;-71
2022/07/30 04:55:44;;;;;;;7.50;6.13;;;16.50;99.90;;;;;;5032715;28;20978;-71
2022/07/30 04:58:12;;;;;;;8.10;5.77;;;16.60;99.90;;;;;;5032731;28;20414;-71
2022/07/30 05:00:38;;;;;;;6.80;6.10;;;16.60;99.90;;;;;;5033574;28;20847;-71
2022/07/30 05:03:06;;;;;;;7.20;5.57;;;16.60;99.90;;;;;;5033481;28;20458;-71
2022/07/30 05:05:33;;;;;;;7.57;5.80;;;16.70;99.90;;;;;;5033516;28;20402;-71
2022/07/30 05:08:00;;;;;;;7.47;5.70;;;16.70;99.90;;;;;;5033707;28;20405;-71
2022/07/30 05:10:26;;;;;;;11.43;6.87;;;16.70;99.90;;;;;;5033389;28;20418;-71
2022/07/30 05:12:52;;;;;;;12.10;8.37;;;16.70;99.90;;;;;;5033151;28;20501;-71
2022/07/30 05:15:18;;;;;;;15.33;8.00;;;16.80;99.90;;;;;;5032893;28;20510;-71
2022/07/30 05:17:44;;;;;;;10.23;6.87;;;16.80;99.90;;;;;;5032749;28;20167;-71
2022/07/30 05:20:10;;;;;;;8.70;6.97;;;16.90;99.90;;;;;;5033347;28;20495;-71
2022/07/30 05:22:36;;;;;;;14.27;8.17;;;16.90;99.90;;;;;;5033431;28;20245;-71
2022/07/30 05:25:02;;;;;;;11.37;8.43;;;16.90;99.90;;;;;;5033246;28;20782;-71
2022/07/30 05:27:27;;;;;;;14.87;9.43;;;17.00;99.90;;;;;;5033112;28;20172;-71
2022/07/30 05:29:53;;;;;;;10.33;6.53;;;17.00;99.90;;;;;;5033139;28;20176;-71
2022/07/30 05:32:18;;;;;;;13.77;7.73;;;17.00;99.90;;;;;;5033331;28;20251;-71
2022/07/30 05:34:44;;;;;;;16.90;8.83;;;17.00;99.90;;;;;;5031275;28;20259;-72
2022/07/30 05:37:09;;;;;;;12.37;7.40;;;17.10;99.90;;;;;;5033037;28;20607;-71
2022/07/30 05:39:35;;;;;;;19.53;8.40;;;17.20;99.90;;;;;;5032835;28;20183;-71
2022/07/30 05:42:01;;;;;;;11.17;8.13;;;17.20;99.90;;;;;;5032937;28;20195;-71
2022/07/30 05:44:26;;;;;;;17.03;8.60;;;17.30;99.90;;;;;;5033033;28;20209;-71
2022/07/30 05:46:52;;;;;;;12.17;8.20;;;17.30;99.90;;;;;;5031760;28;20258;-71
2022/07/30 05:49:18;;;;;;;12.70;7.37;;;17.30;99.90;;;;;;5033047;28;20168;-71
2022/07/30 05:51:43;;;;;;;12.33;8.10;;;17.40;99.90;;;;;;5032526;28;20203;-71
2022/07/30 05:54:09;;;;;;;8.93;6.50;;;17.40;99.90;;;;;;5031620;28;20636;-71
2022/07/30 05:56:35;;;;;;;11.50;7.57;;;17.60;99.90;;;;;;5030917;28;20179;-72
2022/07/30 05:59:01;;;;;;;15.03;9.23;;;17.80;99.90;;;;;;5032506;28;20195;-71
2022/07/30 06:01:26;;;;;;;10.57;8.10;;;18.00;99.90;;;;;;5031228;28;20584;-71
2022/07/30 06:03:52;;;;;;;9.50;8.00;;;18.20;99.90;;;;;;5032304;28;20199;-72
2022/07/30 06:06:17;;;;;;;8.87;7.40;;;18.40;99.90;;;;;;5032161;28;20175;-71
2022/07/30 06:08:43;;;;;;;13.07;8.70;;;18.70;99.90;;;;;;5032608;28;20199;-72
2022/07/30 06:11:09;;;;;;;8.40;6.87;;;19.00;99.90;;;;;;5032568;28;20179;-71
2022/07/30 06:13:35;;;;;;;12.57;7.13;;;19.40;99.90;;;;;;5032488;28;20180;-72
2022/07/30 06:16:00;;;;;;;13.50;6.90;;;19.80;99.90;;;;;;5031986;28;20207;-72
2022/07/30 06:18:26;;;;;;;9.17;7.37;;;20.20;99.90;;;;;;5032416;28;20441;-72
2022/07/30 06:20:53;;;;;;;11.47;7.50;;;20.60;99.90;;;;;;5032196;28;20199;-72
2022/07/30 06:23:21;;;;;;;10.70;6.97;;;21.00;99.90;;;;;;5032240;28;20191;-72
2022/07/30 06:25:48;;;;;;;11.90;7.87;;;21.50;99.90;;;;;;5030116;28;20505;-72
2022/07/30 06:28:14;;;;;;;11.53;5.90;;;22.00;99.90;;;;;;5031857;28;20422;-72
2022/07/30 06:30:40;;;;;;;9.30;6.00;;;22.40;99.90;;;;;;5032180;28;20422;-72
2022/07/30 06:33:06;;;;;;;9.33;7.27;;;22.60;99.90;;;;;;5032258;28;20600;-72
2022/07/30 06:35:33;;;;;;;12.57;7.63;;;22.90;99.90;;;;;;5031686;28;20175;-72
2022/07/30 06:37:59;;;;;;;9.73;6.53;;;23.20;99.90;;;;;;5031960;28;20182;-72
2022/07/30 06:40:24;;;;;;;11.20;6.73;;;23.50;99.90;;;;;;5032077;28;20430;-72
2022/07/30 06:42:50;;;;;;;13.27;7.30;;;23.50;99.90;;;;;;5032055;28;20457;-72
2022/07/30 06:45:16;;;;;;;9.30;6.43;;;23.40;99.90;;;;;;5031715;28;20167;-72
2022/07/30 06:47:41;;;;;;;9.53;5.87;;;23.70;99.90;;;;;;5032108;28;20174;-72
2022/07/30 06:50:07;;;;;;;9.83;6.27;;;24.00;99.90;;;;;;5031774;28;20688;-72
2022/07/30 06:52:33;;;;;;;11.53;7.07;;;24.40;99.90;;;;;;5031795;28;20193;-72
2022/07/30 06:54:58;;;;;;;10.03;7.57;;;24.90;99.90;;;;;;5031018;28;20418;-72
2022/07/30 06:57:24;;;;;;;7.40;5.80;;;25.20;99.90;;;;;;5031548;28;20735;-72
2022/07/30 06:59:50;;;;;;;8.20;5.93;;;25.70;99.90;;;;;;5031815;28;20163;-72
2022/07/30 07:02:15;;;;;;;10.90;5.90;;;26.10;99.90;;;;;;5031637;28;20195;-72
2022/07/30 07:04:41;;;;;;;11.10;6.23;;;26.40;99.90;;;;;;5031558;28;20656;-72
2022/07/30 07:07:06;;;;;;;7.87;6.33;;;26.50;99.90;;;;;;5031501;28;20248;-72
2022/07/30 07:09:32;;;;;;;9.30;5.87;;;26.50;99.90;;;;;;5034402;28;20199;-72
2022/07/30 07:11:58;;;;;;;10.23;6.97;;;26.40;99.90;;;;;;5035808;28;20191;-72
2022/07/30 07:14:23;;;;;;;10.23;6.97;;;26.50;99.90;;;;;;5035265;28;20637;-72
2022/07/30 07:16:49;;;;;;;6.87;4.53;;;26.60;99.90;;;;;;5035566;28;20280;-72
2022/07/30 07:19:15;;;;;;;8.50;5.60;;;26.80;99.90;;;;;;5035712;28;20167;-72
2022/07/30 07:21:40;;;;;;;9.40;5.53;;;27.20;99.90;;;;;;5035738;28;20179;-73
2022/07/30 07:24:07;;;;;;;8.40;5.20;;;27.30;99.90;;;;;;5035612;28;20794;-72
2022/07/30 07:26:33;;;;;;;8.13;5.67;;;27.40;99.90;;;;;;5035572;28;20163;-72
2022/07/30 07:28:59;;;;;;;7.53;5.57;;;27.50;99.90;;;;;;5035247;28;20441;-72
2022/07/30 07:31:25;;;;;;;14.33;6.50;;;27.60;99.90;;;;;;5035613;28;20938;-72
2022/07/30 07:33:53;;;;;;;9.37;5.70;;;27.70;99.90;;;;;;5034317;28;20171;-72
2022/07/30 07:36:22;;;;;;;5.70;4.67;;;27.50;99.90;;;;;;5034964;28;20176;-72
2022/07/30 07:38:48;;;;;;;8.93;5.63;;;27.70;99.90;;;;;;5034076;28;20854;-72
2022/07/30 07:41:14;;;;;;;14.60;8.10;;;28.50;98.80;;;;;;5034998;28;20442;-72
2022/07/30 07:43:40;;;;;;;4.40;3.87;;;29.20;96.10;;;;;;5035260;28;21182;-73
2022/07/30 07:46:06;;;;;;;5.60;4.77;;;29.70;91.90;;;;;;5035183;28;20160;-73
2022/07/30 07:48:32;;;;;;;8.20;4.73;;;30.10;90.60;;;;;;5035272;28;20410;-73
2022/07/30 07:50:58;;;;;;;5.93;3.77;;;30.30;87.40;;;;;;5034822;28;20499;-73
2022/07/30 07:53:23;;;;;;;7.50;5.00;;;31.30;80.00;;;;;;5035204;28;20262;-73
2022/07/30 07:55:49;;;;;;;5.87;4.90;;;31.90;72.60;;;;;;5034473;28;20445;-73
2022/07/30 07:58:15;;;;;;;6.03;4.77;;;32.40;67.60;;;;;;5034981;28;20178;-73
2022/07/30 08:00:41;;;;;;;7.70;4.70;;;32.90;63.90;;;;;;5034724;28;20430;-73
2022/07/30 08:03:06;;;;;;;5.40;4.90;;;33.50;59.80;;;;;;5034703;28;20688;-73
2022/07/30 08:05:32;;;;;;;5.37;4.83;;;33.50;59.10;;;;;;5033275;28;20633;-73
2022/07/30 08:07:58;;;;;;;7.03;5.33;;;33.70;57.50;;;;;;5034577;28;20202;-73
2022/07/30 08:10:24;;;;;;;6.43;5.30;;;34.60;56.20;;;;;;5034882;28;20194;-73
2022/07/30 08:12:49;;;;;;;5.43;4.93;;;34.90;53.80;;;;;;5034867;28;20406;-73
2022/07/30 08:15:15;;;;;;;6.10;4.70;;;35.50;53.60;;;;;;5034238;28;20203;-73
2022/07/30 08:17:44;;;;;;;4.90;4.50;;;36.30;51.60;;;;;;5034748;28;20199;-74
2022/07/30 08:20:11;;;;;;;4.87;4.37;;;36.40;50.20;;;;;;5033935;28;20215;-73
2022/07/30 08:22:37;;;;;;;4.53;4.07;;;36.90;48.70;;;;;;5034513;28;20482;-74
2022/07/30 08:25:04;;;;;;;7.40;5.57;;;37.20;48.20;;;;;;5034132;28;20399;-73
2022/07/30 08:27:29;;;;;;;7.30;5.20;;;37.40;47.10;;;;;;5034563;28;20620;-73
2022/07/30 08:29:55;;;;;;;4.80;4.40;;;37.30;46.80;;;;;;5034410;28;20442;-74
2022/07/30 08:32:20;;;;;;;7.33;4.50;;;37.70;46.70;;;;;;5034414;28;20167;-74
2022/07/30 08:34:46;;;;;;;6.83;4.30;;;38.20;45.80;;;;;;5033804;28;20178;-73
2022/07/30 08:37:12;;;;;;;4.53;4.13;;;38.80;45.40;;;;;;5034038;28;20171;-74
2022/07/30 08:39:37;;;;;;;5.13;4.63;;;39.00;44.20;;;;;;5034379;28;20203;-74
2022/07/30 08:42:03;;;;;;;5.97;4.60;;;39.70;42.70;;;;;;5034135;28;20274;-73
2022/07/30 08:44:31;;;;;;;6.23;4.50;;;39.60;43.00;;;;;;5032884;28;20644;-74
2022/07/30 08:46:58;;;;;;;5.87;5.27;;;39.10;42.80;;;;;;5034156;28;20762;-74
2022/07/30 08:49:24;;;;;;;6.73;4.90;;;38.50;43.30;;;;;;5033862;28;20516;-74
2022/07/30 08:51:50;;;;;;;6.10;4.33;;;38.70;43.30;;;;;;5033817;28;20533;-74
2022/07/30 08:54:17;;;;;;;5.17;4.70;;;38.70;43.00;;;;;;5031801;28;20435;-74
2022/07/30 08:56:44;;;;;;;5.97;5.47;;;38.40;42.30;;;;;;5033974;28;20172;-73
2022/07/30 08:59:10;;;;;;;6.17;4.73;;;37.20;43.30;;;;;;5034040;28;20926;-73
2022/07/30 09:01:36;;;;;;;6.67;4.80;;;36.60;45.30;;;;;;5033482;28;20426;-73
2022/07/30 09:04:02;;;;;;;4.80;4.40;;;36.90;45.50;;;;;;5033529;28;20519;-74
2022/07/30 09:06:28;;;;;;;7.93;4.70;;;37.20;44.40;;;;;;5033603;28;20641;-74
2022/07/30 09:08:53;;;;;;;5.90;4.23;;;38.00;43.30;;;;;;5033819;28;20405;-72
2022/07/30 09:11:19;;;;;;;6.57;5.47;;;38.30;43.40;;;;;;5033408;28;20191;-72
2022/07/30 09:13:45;;;;;;;4.60;4.07;;;38.70;42.70;;;;;;5033756;28;20175;-72
2022/07/30 09:16:23;;;;;;;5.67;4.73;;;39.50;42.30;;;;;;5033040;28;20393;-72
2022/07/30 09:18:50;;;;;;;5.00;4.50;;;40.20;40.80;;;;;;5033653;28;20377;-72
2022/07/30 09:21:27;;;;;;;5.30;4.27;;;40.30;40.70;;;;;;5032255;28;20437;-72
2022/07/30 09:24:04;;;;;;;6.00;4.50;;;41.20;39.50;;;;;;5031970;28;20444;-71
2022/07/30 09:26:32;;;;;;;5.43;4.80;;;41.80;36.90;;;;;;5013371;28;20475;-72
2022/07/30 09:29:30;;;;;;;4.90;3.77;;;42.10;36.00;;;;;;5013770;28;20436;-72
2022/07/30 09:32:04;;;;;;;4.23;3.83;;;41.90;37.60;;;;;;5000519;28;20522;-72
2022/07/30 09:34:40;;;;;;;4.53;4.03;;;42.60;36.40;;;;;;5018192;28;20454;-72
2022/07/30 09:37:09;;;;;;;3.93;3.63;;;43.50;35.50;;;;;;5032121;28;20420;-72
2022/07/30 09:39:36;;;;;;;4.77;4.47;;;44.30;34.00;;;;;;5031616;28;20470;-72
2022/07/30 09:42:04;;;;;;;4.10;3.80;;;45.00;32.10;;;;;;5032858;28;20433;-72
2022/07/30 09:44:30;;;;;;;4.67;3.47;;;45.00;31.70;;;;;;5032586;28;20429;-72
2022/07/30 09:46:56;;;;;;;6.17;4.90;;;44.90;32.50;;;;;;5033059;28;20948;-72
2022/07/30 09:49:26;;;;;;;4.43;4.03;;;45.50;32.10;;;;;;5033002;28;20402;-72
2022/07/30 09:51:53;;;;;;;5.13;4.63;;;45.60;31.20;;;;;;5031191;28;20473;-72
2022/07/30 09:54:19;;;;;;;3.83;3.47;;;45.00;30.10;;;;;;5032371;28;20426;-72
2022/07/30 09:56:45;;;;;;;3.83;3.53;;;44.40;30.80;;;;;;5032855;28;20396;-72
2022/07/30 09:59:26;;;;;;;4.67;3.90;;;44.20;31.70;;;;;;5032866;28;20377;-72
2022/07/30 10:01:54;;;;;;;6.70;4.67;;;44.20;31.40;;;;;;5032769;28;20286;-72
2022/07/30 10:04:23;;;;;;;3.33;3.03;;;43.80;30.40;;;;;;5031442;28;20881;-72
2022/07/30 10:06:49;;;;;;;4.43;4.03;;;43.40;32.40;;;;;;5032433;28;20410;-72
2022/07/30 10:09:28;;;;;;;3.67;3.27;;;43.70;31.40;;;;;;5032725;28;20439;-72
2022/07/30 10:11:59;;;;;;;2.97;2.77;;;44.70;30.10;;;;;;5032438;28;20175;-73
2022/07/30 10:14:29;;;;;;;3.87;3.57;;;45.60;30.70;;;;;;5032061;28;20886;-74
2022/07/30 10:16:55;;;;;;;4.53;3.43;;;46.10;28.20;;;;;;5032272;28;20389;-74
2022/07/30 10:19:21;;;;;;;4.70;4.23;;;46.20;29.00;;;;;;5032460;28;20377;-73
2022/07/30 10:21:49;;;;;;;4.27;3.87;;;46.80;28.50;;;;;;5032379;28;20513;-74
2022/07/30 10:24:21;;;;;;;3.53;3.23;;;47.00;29.30;;;;;;5030939;28;20914;-73
2022/07/30 10:26:47;;;;;;;3.83;2.80;;;47.10;28.60;;;;;;5032392;28;20480;-72
2022/07/30 10:29:17;;;;;;;4.67;4.27;;;47.10;28.10;;;;;;5030701;28;20823;-73
2022/07/30 10:31:44;;;;;;;7.37;4.67;;;47.10;27.60;;;;;;5032142;28;20449;-73
2022/07/30 10:34:12;;;;;;;4.43;4.03;;;46.70;28.60;;;;;;5031911;28;20453;-74
2022/07/30 10:36:42;;;;;;;4.60;3.40;;;46.70;27.50;;;;;;5032152;28;20411;-72
2022/07/30 10:39:11;;;;;;;3.43;3.13;;;46.90;27.50;;;;;;5032037;28;20415;-72
2022/07/30 10:42:01;;;;;;;3.80;3.50;;;47.10;27.60;;;;;;5031908;28;20456;-71
2022/07/30 10:45:01;;;;;;;3.50;3.17;;;47.30;27.00;;;;;;5031554;28;20414;-72
2022/07/30 10:47:28;;;;;;;3.27;2.73;;;47.60;26.40;;;;;;5012433;28;20480;-72
2022/07/30 10:50:13;;;;;;;3.57;3.27;;;48.20;27.00;;;;;;5021930;28;20568;-72
2022/07/30 10:52:49;;;;;;;3.00;2.70;;;48.60;25.90;;;;;;5031885;28;20516;-72
2022/07/30 10:55:21;;;;;;;3.80;3.50;;;48.80;26.80;;;;;;5031802;28;20500;-72
2022/07/30 10:57:57;;;;;;;3.23;2.93;;;48.70;26.50;;;;;;5030612;28;20674;-72
2022/07/30 11:00:24;;;;;;;3.60;3.10;;;48.60;26.70;;;;;;5031898;28;20417;-72
2022/07/30 11:03:25;;;;;;;3.77;3.57;;;49.00;26.60;;;;;;5031576;28;20942;-72
2022/07/30 11:06:11;;;;;;;3.47;3.27;;;49.50;26.30;;;;;;5031552;28;20425;-72
2022/07/30 11:08:38;;;;;;;3.60;3.30;;;49.80;26.40;;;;;;5030428;28;20922;-72
2022/07/30 11:11:20;;;;;;;5.20;3.77;;;50.00;26.20;;;;;;5031730;28;20434;-72
2022/07/30 11:14:01;;;;;;;3.60;3.30;;;50.00;26.00;;;;;;5031584;28;20459;-73
2022/07/30 11:16:32;;;;;;;3.37;3.17;;;50.00;25.20;;;;;;5031412;28;20422;-73
2022/07/30 11:19:03;;;;;;;3.30;3.10;;;50.30;25.50;;;;;;5031484;28;21142;-74
2022/07/30 11:21:30;;;;;;;3.67;3.37;;;50.30;25.80;;;;;;5030238;28;20807;-73
2022/07/30 11:23:56;;;;;;;3.10;2.90;;;50.70;25.70;;;;;;5031398;28;20418;-73
2022/07/30 11:26:37;;;;;;;3.30;3.10;;;50.60;24.40;;;;;;5030205;28;20927;-73
2022/07/30 11:29:04;;;;;;;3.30;3.10;;;50.30;24.00;;;;;;5031683;28;20409;-72
2022/07/30 11:31:32;;;;;;;2.97;2.80;;;49.80;24.00;;;;;;5031643;28;20437;-73
2022/07/30 11:34:31;;;;;;;3.00;2.80;;;49.80;24.70;;;;;;5030015;28;20839;-73
2022/07/30 11:37:12;;;;;;;3.03;2.83;;;49.60;23.60;;;;;;5008493;28;20972;-73
2022/07/30 11:39:56;;;;;;;3.20;3.00;;;49.70;24.40;;;;;;5031570;28;20402;-73
2022/07/30 11:42:26;;;;;;;3.27;2.97;;;49.80;24.30;;;;;;5031204;28;20934;-74
2022/07/30 11:44:52;;;;;;;3.90;3.03;;;49.80;24.00;;;;;;5031266;28;20406;-74
2022/07/30 11:47:18;;;;;;;3.47;3.27;;;48.90;23.00;;;;;;5031233;28;20422;-74
2022/07/30 11:49:47;;;;;;;3.70;2.90;;;48.10;23.80;;;;;;5031445;28;20410;-74
2022/07/30 11:52:21;;;;;;;2.80;2.60;;;47.80;24.60;;;;;;5031312;28;20429;-74
2022/07/30 11:54:54;;;;;;;2.90;2.70;;;47.50;25.00;;;;;;5029948;28;20393;-74
2022/07/30 11:57:37;;;;;;;6.20;3.00;;;47.50;25.00;;;;;;5035147;28;20411;-74
2022/07/30 12:00:03;;;;;;;3.17;2.87;;;47.50;24.70;;;;;;5034786;28;20409;-75
2022/07/30 12:02:29;;;;;;;3.23;3.03;;;47.60;25.30;;;;;;5035017;28;20513;-74
2022/07/30 12:04:54;;;;;;;3.27;3.07;;;47.20;25.40;;;;;;5034633;28;20467;-74
2022/07/30 12:07:23;;;;;;;3.90;3.03;;;47.00;25.70;;;;;;5034985;28;20179;-74
2022/07/30 12:09:48;;;;;;;3.70;2.57;;;47.00;25.30;;;;;;5034184;28;20179;-74
2022/07/30 12:12:23;;;;;;;2.70;2.50;;;46.90;25.30;;;;;;5034703;28;20462;-73
2022/07/30 12:14:50;;;;;;;3.20;2.80;;;46.80;25.80;;;;;;5034737;28;20167;-73
2022/07/30 12:17:16;;;;;;;3.00;2.70;;;47.30;25.40;;;;;;5034682;28;20414;-73
2022/07/30 12:19:45;;;;;;;2.83;2.53;;;47.80;25.50;;;;;;5034655;28;20472;-73
2022/07/30 12:22:11;;;;;;;2.70;2.50;;;48.00;24.20;;;;;;5033929;28;20532;-73
2022/07/30 12:24:36;;;;;;;3.70;2.90;;;47.80;24.90;;;;;;5034398;28;20442;-73
2022/07/30 12:27:04;;;;;;;3.13;2.90;;;47.80;25.50;;;;;;5034637;28;20166;-74
2022/07/30 12:29:31;;;;;;;3.40;3.10;;;48.00;25.00;;;;;;5034607;28;20686;-74
2022/07/30 12:31:57;;;;;;;3.60;3.30;;;47.30;25.00;;;;;;5034151;28;20442;-74
2022/07/30 12:34:24;;;;;;;4.30;2.37;;;46.50;24.90;;;;;;5034177;28;20396;-74
2022/07/30 12:36:50;;;;;;;2.47;2.27;;;46.00;25.50;;;;;;5033988;28;20633;-74
2022/07/30 12:39:23;;;;;;;2.53;2.30;;;45.30;25.60;;;;;;5034212;28;20426;-75
2022/07/30 12:41:52;;;;;;;2.67;2.47;;;44.80;26.80;;;;;;5034359;28;20492;-74
2022/07/30 12:44:35;;;;;;;2.13;2.03;;;44.30;26.40;;;;;;5032485;28;20418;-74
2022/07/30 12:47:02;;;;;;;2.10;2.00;;;44.00;26.60;;;;;;5034279;28;20380;-74
2022/07/30 12:49:31;;;;;;;5.03;2.57;;;44.40;26.70;;;;;;5034228;28;20443;-74
2022/07/30 12:51:57;;;;;;;2.50;2.30;;;44.70;27.00;;;;;;5033967;28;20478;-73
2022/07/30 12:54:23;;;;;;;3.40;2.97;;;45.20;25.50;;;;;;5033784;28;20426;-74